Time;durP1;ratioP1;P1;durP2;ratioP2;P2;SDS_P1;SDS_P2;PMS_P1;PMS_P2;Temp;Humidity;BMP_temperature;BMP_pressure;BME280_temperature;BME280_humidity;BME280_pressure;Samples;Min_cycle;Max_cycle;Signal;HPM_P1;HPM_P2
2021/12/22 00:02:15;;;;;;;14.80;7.80;;;;;;;-2.47;72.24;101212.95;102957;1324;22580;-83
2021/12/22 00:04:47;;;;;;;15.70;8.90;;;;;;;-2.52;72.59;101218.16;103018;1324;24856;-81
2021/12/22 00:07:15;;;;;;;18.40;10.00;;;;;;;-2.47;72.78;101213.98;102966;1324;25379;-81
2021/12/22 00:09:43;;;;;;;16.40;9.30;;;;;;;-2.36;72.66;101217.33;103202;1323;22759;-81
2021/12/22 00:12:11;;;;;;;16.30;8.20;;;;;;;-2.28;72.58;101218.15;102863;1325;22608;-82
2021/12/22 00:14:38;;;;;;;19.60;10.30;;;;;;;-2.29;72.25;101220.52;102808;1324;24781;-83
2021/12/22 00:17:05;;;;;;;14.00;8.50;;;;;;;-2.31;72.35;101212.46;103732;1324;22582;-84
2021/12/22 00:19:32;;;;;;;14.90;9.50;;;;;;;-2.31;72.59;101220.40;104188;1320;22606;-85
2021/12/22 00:21:59;;;;;;;13.50;8.90;;;;;;;-2.28;72.47;101218.88;103507;1320;22577;-82
2021/12/22 00:24:27;;;;;;;13.50;7.90;;;;;;;-2.29;71.98;101219.82;103078;1317;23212;-82
2021/12/22 00:26:54;;;;;;;17.00;10.30;;;;;;;-2.47;71.65;101217.59;103233;1321;22580;-81
2021/12/22 00:29:22;;;;;;;11.40;7.40;;;;;;;-2.56;72.09;101220.90;103229;1321;26610;-81
2021/12/22 00:32:10;;;;;;;16.40;10.50;;;;;;;-2.61;72.11;101220.25;103128;1320;25471;-81
2021/12/22 00:34:53;;;;;;;17.10;10.10;;;;;;;-2.66;72.26;101220.84;103228;1321;25628;-85
2021/12/22 00:37:29;;;;;;;17.90;11.00;;;;;;;-2.65;72.43;101224.52;103299;1321;25512;-86
2021/12/22 00:39:58;;;;;;;15.90;10.30;;;;;;;-2.69;72.35;101226.52;103333;1317;22609;-84
2021/12/22 00:42:25;;;;;;;16.70;11.30;;;;;;;-2.70;72.50;101230.45;103367;1322;24229;-86
2021/12/22 00:44:54;;;;;;;22.10;12.60;;;;;;;-2.68;72.38;101230.52;103169;1320;23954;-81
2021/12/22 00:47:25;;;;;;;17.30;12.10;;;;;;;-2.73;72.35;101233.68;103314;1318;23937;-84
2021/12/22 00:49:54;;;;;;;21.10;12.50;;;;;;;-2.75;72.54;101229.95;103107;1322;25320;-84
2021/12/22 00:52:21;;;;;;;19.60;11.30;;;;;;;-2.64;72.81;101232.98;103105;1321;25250;-84
2021/12/22 00:54:48;;;;;;;20.00;12.10;;;;;;;-2.65;72.43;101235.38;103086;1322;26605;-82
2021/12/22 00:57:17;;;;;;;16.90;9.90;;;;;;;-2.62;72.57;101229.69;102968;1321;23988;-81
2021/12/22 00:59:46;;;;;;;14.50;9.50;;;;;;;-2.60;72.38;101228.25;103206;1321;25717;-82
2021/12/22 01:02:16;;;;;;;16.30;10.20;;;;;;;-2.61;72.47;101226.64;102914;1322;24216;-84
2021/12/22 01:04:43;;;;;;;17.00;11.50;;;;;;;-2.60;72.23;101227.54;102723;1327;23958;-83
2021/12/22 01:07:11;;;;;;;16.00;10.10;;;;;;;-2.60;72.32;101228.59;102683;1326;22715;-84
2021/12/22 01:09:38;;;;;;;18.10;11.60;;;;;;;-2.59;72.24;101232.24;103056;1327;23742;-82
2021/12/22 01:12:06;;;;;;;15.70;10.40;;;;;;;-2.55;72.29;101230.44;102774;1327;22546;-83
2021/12/22 01:14:34;;;;;;;14.00;9.10;;;;;;;-2.51;72.14;101231.36;102728;1327;22613;-88
2021/12/22 01:17:03;;;;;;;12.10;7.80;;;;;;;-2.46;72.10;101233.16;103654;1324;22875;-86
2021/12/22 01:19:44;;;;;;;15.80;10.40;;;;;;;-2.50;72.08;101234.36;103334;1325;22745;-87
2021/12/22 01:25:03;;;;;;;13.10;7.40;;;;;;;-2.48;71.96;101244.27;103233;1320;24283;-83
2021/12/22 01:27:37;;;;;;;15.50;10.60;;;;;;;-2.50;71.84;101245.36;103172;1321;22776;-82
2021/12/22 01:30:15;;;;;;;16.60;10.40;;;;;;;-2.52;71.85;101247.02;103148;1321;23274;-85
2021/12/22 01:32:42;;;;;;;19.80;11.60;;;;;;;-2.53;71.83;101249.55;103185;1321;22584;-85
2021/12/22 01:35:12;;;;;;;15.70;10.80;;;;;;;-2.57;71.69;101252.39;104232;1321;25386;-80
2021/12/22 01:37:40;;;;;;;16.80;10.70;;;;;;;-2.61;71.57;101255.29;104030;1321;22766;-80
2021/12/22 01:40:08;;;;;;;17.90;10.80;;;;;;;-2.63;71.66;101255.70;104288;1321;22887;-80
2021/12/22 01:42:36;;;;;;;13.40;9.60;;;;;;;-2.60;71.69;101262.03;103695;1319;23266;-83
2021/12/22 01:45:31;;;;;;;13.50;8.70;;;;;;;-2.63;71.76;101265.15;104014;1321;22632;-81
2021/12/22 01:50:48;;;;;;;17.40;11.00;;;;;;;-2.82;71.66;101270.91;103101;1320;25449;-90
2021/12/22 01:53:21;;;;;;;16.30;10.60;;;;;;;-2.94;71.85;101273.88;103138;1320;24421;-86
2021/12/22 01:56:16;;;;;;;17.70;11.80;;;;;;;-2.99;71.89;101274.03;103080;1325;25253;-82
2021/12/22 01:58:46;;;;;;;16.20;11.30;;;;;;;-2.97;72.47;101272.48;103951;1325;22666;-82
2021/12/22 02:01:15;;;;;;;16.50;11.40;;;;;;;-2.90;72.32;101275.48;104039;1325;22590;-81
2021/12/22 02:03:44;;;;;;;17.20;10.80;;;;;;;-2.86;72.17;101273.13;104569;1325;22673;-80
2021/12/22 02:06:12;;;;;;;16.30;11.00;;;;;;;-2.85;72.17;101274.73;105946;1325;22868;-81
2021/12/22 02:08:40;;;;;;;17.70;11.90;;;;;;;-2.79;72.36;101273.36;103121;1320;22961;-78
2021/12/22 02:11:07;;;;;;;13.20;8.90;;;;;;;-2.79;72.11;101268.20;102309;1329;25252;-79
2021/12/22 02:13:39;;;;;;;13.60;9.30;;;;;;;-2.72;72.21;101270.32;102323;1325;22810;-80
2021/12/22 02:16:14;;;;;;;16.30;11.20;;;;;;;-2.75;71.87;101270.70;102455;1322;22570;-80
2021/12/22 02:18:49;;;;;;;17.70;11.00;;;;;;;-2.79;71.94;101268.70;103008;1324;22897;-80
2021/12/22 02:21:18;;;;;;;17.50;12.40;;;;;;;-2.79;72.02;101266.48;102879;1325;24261;-83
2021/12/22 02:23:45;;;;;;;15.40;10.80;;;;;;;-2.73;72.14;101269.06;103200;1325;22924;-82
2021/12/22 02:26:20;;;;;;;15.70;10.80;;;;;;;-2.71;72.10;101266.23;102789;1321;26516;-83
2021/12/22 02:28:56;;;;;;;16.40;10.90;;;;;;;-2.74;71.98;101264.18;103192;1321;25865;-83
2021/12/22 02:31:23;;;;;;;;;;;;;;;-2.73;71.96;101263.02;103209;1321;22578;-84
2021/12/22 02:33:51;;;;;;;13.50;9.50;;;;;;;-2.78;72.12;101262.39;103290;1321;25303;-87
2021/12/22 02:36:23;;;;;;;16.10;11.60;;;;;;;-2.81;72.04;101263.09;103147;1321;25465;-85
2021/12/22 02:39:00;;;;;;;13.60;10.10;;;;;;;-2.84;72.09;101261.51;103207;1321;23897;-87
2021/12/22 02:41:30;;;;;;;16.10;11.00;;;;;;;-2.85;72.40;101263.51;103352;1321;25257;-89
2021/12/22 02:43:59;;;;;;;11.60;8.50;;;;;;;-2.77;72.70;101270.74;103119;1321;196412;-84
2021/12/22 02:46:31;;;;;;;15.30;9.70;;;;;;;-2.78;72.15;101268.63;102965;1320;25543;-84
2021/12/22 02:49:01;;;;;;;17.90;12.30;;;;;;;-2.84;72.12;101268.39;103160;1321;25053;-83
2021/12/22 02:51:29;;;;;;;17.80;12.10;;;;;;;-2.80;72.32;101272.77;103242;1321;22695;-84
2021/12/22 03:02:11;;;;;;;15.80;10.40;;;;;;;-2.65;71.96;101274.50;103392;1329;22599;-82
2021/12/22 03:04:49;;;;;;;13.70;9.80;;;;;;;-2.65;72.14;101269.35;103875;1327;22789;-83
2021/12/22 03:07:18;;;;;;;17.40;11.10;;;;;;;-2.67;71.92;101269.77;103868;1327;22608;-83
2021/12/22 03:09:57;;;;;;;17.50;12.20;;;;;;;-2.71;71.86;101268.98;104723;1327;22605;-87
2021/12/22 03:12:24;;;;;;;18.40;11.10;;;;;;;-2.73;71.92;101276.83;103341;1327;22594;-80
2021/12/22 03:14:51;;;;;;;20.00;12.40;;;;;;;-2.77;71.89;101277.97;103247;1327;24215;-81
2021/12/22 03:17:18;;;;;;;18.10;11.10;;;;;;;-2.79;72.16;101278.52;102627;1323;22558;-80
2021/12/22 03:19:45;;;;;;;16.70;11.50;;;;;;;-2.75;72.10;101285.51;102934;1321;25320;-81
2021/12/22 03:22:17;;;;;;;14.60;11.20;;;;;;;-2.75;72.30;101286.02;103449;1321;22952;-81
2021/12/22 03:24:47;;;;;;;16.80;10.40;;;;;;;-2.78;72.24;101289.13;103945;1319;22600;-80
2021/12/22 03:27:14;;;;;;;22.40;13.20;;;;;;;-2.82;72.32;101293.70;103725;1322;22603;-81
2021/12/22 03:29:41;;;;;;;18.10;11.80;;;;;;;-2.79;72.37;101290.41;103934;1321;23040;-79
2021/12/22 03:32:10;;;;;;;16.00;11.90;;;;;;;-2.85;72.33;101286.98;103294;1321;25444;-77
2021/12/22 03:34:39;;;;;;;18.60;12.70;;;;;;;-2.82;72.50;101294.02;102990;1327;22542;-81
2021/12/22 03:37:07;;;;;;;16.60;11.80;;;;;;;-2.77;72.42;101284.70;103646;1326;22645;-81
2021/12/22 03:39:34;;;;;;;19.00;12.10;;;;;;;-2.67;72.76;101289.56;103435;1327;26738;-80
2021/12/22 03:42:02;;;;;;;17.60;11.40;;;;;;;-2.56;72.52;101285.39;102970;1327;22668;-81
2021/12/22 03:44:29;;;;;;;16.00;11.70;;;;;;;-2.51;72.20;101282.61;102846;1323;24208;-80
2021/12/22 03:46:58;;;;;;;15.80;10.70;;;;;;;-2.55;72.01;101293.23;102699;1327;25329;-79
2021/12/22 03:49:26;;;;;;;11.40;8.30;;;;;;;-2.77;71.86;101294.70;102849;1329;25242;-85
2021/12/22 03:51:53;;;;;;;17.00;10.90;;;;;;;-2.83;72.10;101298.27;102972;1327;22856;-86
2021/12/22 03:54:20;;;;;;;15.90;10.90;;;;;;;-2.79;72.56;101301.16;105340;1322;22620;-82
2021/12/22 03:56:47;;;;;;;21.50;12.80;;;;;;;-2.72;72.44;101304.15;105618;1317;22670;-79
2021/12/22 03:59:14;;;;;;;13.80;9.70;;;;;;;-2.64;72.48;101305.44;104616;1317;25378;-78
2021/12/22 04:01:40;;;;;;;17.00;10.30;;;;;;;-2.59;72.18;101305.92;103805;1321;24219;-80
2021/12/22 04:04:13;;;;;;;15.00;10.40;;;;;;;-2.54;72.30;101307.06;104602;1321;22668;-79
2021/12/22 04:06:43;;;;;;;15.60;9.70;;;;;;;-2.54;71.83;101302.09;104023;1319;22749;-78
2021/12/22 04:09:11;;;;;;;15.20;10.00;;;;;;;-2.65;71.92;101300.75;103635;1320;22810;-80
2021/12/22 04:11:39;;;;;;;14.20;8.50;;;;;;;-2.66;71.72;101309.83;104238;1320;22586;-81
2021/12/22 04:14:06;;;;;;;14.30;10.40;;;;;;;-2.76;71.70;101309.08;103763;1313;22708;-80
2021/12/22 04:16:34;;;;;;;13.70;9.60;;;;;;;-2.80;71.92;101308.28;103513;1321;22584;-80
2021/12/22 04:19:01;;;;;;;14.80;10.80;;;;;;;-2.82;72.10;101309.94;104084;1320;23938;-81
2021/12/22 04:21:29;;;;;;;15.60;10.40;;;;;;;-2.81;72.06;101313.27;103612;1319;22584;-81
2021/12/22 04:23:56;;;;;;;11.00;7.20;;;;;;;-2.78;72.26;101311.85;103653;1320;22673;-79
2021/12/22 04:26:24;;;;;;;14.10;9.30;;;;;;;-2.77;72.11;101310.02;103465;1320;25945;-81
2021/12/22 04:28:50;;;;;;;11.30;8.70;;;;;;;-2.84;71.87;101312.20;103782;1319;25354;-81
2021/12/22 04:31:17;;;;;;;18.10;10.20;;;;;;;-2.92;72.04;101312.09;103777;1319;22596;-84
2021/12/22 04:33:44;;;;;;;15.10;10.80;;;;;;;-2.96;72.03;101310.98;103335;1321;22708;-81
2021/12/22 04:36:11;;;;;;;15.40;10.20;;;;;;;-3.01;72.08;101311.19;103671;1319;22720;-83
2021/12/22 04:38:38;;;;;;;16.50;11.90;;;;;;;-3.09;72.00;101308.32;103656;1319;22770;-83
2021/12/22 04:41:05;;;;;;;17.40;11.20;;;;;;;-3.06;72.44;101310.54;103173;1320;22665;-85
2021/12/22 04:43:31;;;;;;;16.00;11.50;;;;;;;-3.01;72.59;101309.51;102712;1327;22583;-83
2021/12/22 04:45:59;;;;;;;16.00;9.60;;;;;;;-3.04;72.43;101304.98;102242;1332;25242;-85
2021/12/22 04:48:26;;;;;;;14.60;10.20;;;;;;;-2.99;72.92;101306.98;102304;1332;22578;-88
2021/12/22 04:50:53;;;;;;;11.60;8.80;;;;;;;-2.91;72.58;101306.63;102186;1333;24242;-89
2021/12/22 04:53:24;;;;;;;15.70;10.50;;;;;;;-2.90;72.50;101306.69;105092;1305;23150;-86
2021/12/22 04:55:56;;;;;;;15.20;8.70;;;;;;;-2.84;72.56;101303.76;106658;1319;22615;-87
2021/12/22 04:58:23;;;;;;;14.80;9.90;;;;;;;-2.89;72.02;101300.85;106577;1322;22622;-89
2021/12/22 05:00:50;;;;;;;18.30;10.80;;;;;;;-2.94;72.09;101300.70;105604;1317;24405;-86
2021/12/22 05:03:16;;;;;;;12.50;9.00;;;;;;;-2.98;72.24;101303.24;103511;1322;22593;-88
2021/12/22 05:05:44;;;;;;;15.80;10.70;;;;;;;-3.00;72.38;101312.66;103274;1321;22577;-83
2021/12/22 05:08:10;;;;;;;15.60;9.80;;;;;;;-2.94;72.57;101316.95;103363;1322;22594;-81
2021/12/22 05:10:37;;;;;;;12.10;8.80;;;;;;;-2.86;72.71;101321.02;104077;1322;22739;-83
2021/12/22 05:13:04;;;;;;;14.20;9.60;;;;;;;-2.83;72.38;101327.05;104882;1315;22673;-81
2021/12/22 05:15:38;;;;;;;14.00;8.90;;;;;;;-2.83;72.45;101330.71;104702;1322;25249;-82
2021/12/22 05:18:35;;;;;;;11.40;9.20;;;;;;;-2.86;72.12;101327.77;104184;1321;22573;-86
2021/12/22 05:21:03;;;;;;;15.50;11.50;;;;;;;-2.90;72.39;101326.70;104299;1316;24220;-83
2021/12/22 05:23:30;;;;;;;14.10;10.10;;;;;;;-2.84;72.47;101329.45;104858;1320;22881;-85
2021/12/22 05:25:56;;;;;;;14.40;9.40;;;;;;;-2.80;72.26;101324.70;105990;1320;25287;-78
2021/12/22 05:28:23;;;;;;;11.30;8.90;;;;;;;-2.74;72.43;101322.95;103732;1320;23259;-79
2021/12/22 05:30:50;;;;;;;12.20;8.70;;;;;;;-2.71;72.25;101326.41;103451;1321;23032;-78
2021/12/22 05:33:17;;;;;;;11.00;8.70;;;;;;;-2.71;72.06;101328.62;103178;1322;24283;-81
2021/12/22 05:35:44;;;;;;;16.00;9.40;;;;;;;-2.69;72.14;101338.77;103722;1322;22531;-80
2021/12/22 05:38:10;;;;;;;14.30;10.30;;;;;;;-2.70;71.96;101339.42;104785;1319;25348;-80
2021/12/22 05:40:37;;;;;;;12.20;8.70;;;;;;;-2.78;72.00;101343.74;104818;1315;22666;-79
2021/12/22 05:43:07;;;;;;;12.50;8.90;;;;;;;-2.80;71.99;101347.42;104570;1319;22636;-80
2021/12/22 05:45:34;;;;;;;12.80;9.80;;;;;;;-2.89;72.07;101349.99;103736;1320;22590;-81
2021/12/22 05:48:01;;;;;;;11.90;8.70;;;;;;;-2.94;72.21;101351.57;104923;1319;22546;-86
2021/12/22 05:50:28;;;;;;;12.60;9.10;;;;;;;-2.97;72.46;101350.52;106139;1316;22590;-88
2021/12/22 05:52:55;;;;;;;13.80;9.70;;;;;;;-2.83;72.87;101360.00;105672;1322;22700;-86
2021/12/22 05:55:22;;;;;;;10.30;7.60;;;;;;;-2.75;72.56;101364.29;105225;1312;22600;-84
2021/12/22 05:57:49;;;;;;;13.00;9.10;;;;;;;-2.80;72.53;101361.92;103752;1316;22618;-80
2021/12/22 06:00:16;;;;;;;14.90;10.10;;;;;;;-2.75;72.84;101368.10;103411;1320;22660;-79
2021/12/22 06:02:43;;;;;;;10.80;8.60;;;;;;;-2.63;72.80;101370.87;103131;1321;24110;-80
2021/12/22 06:05:11;;;;;;;12.40;8.60;;;;;;;-2.59;72.56;101371.64;103168;1322;25533;-79
2021/12/22 06:07:38;;;;;;;11.50;8.80;;;;;;;-2.54;72.34;101380.53;103281;1322;25261;-80
2021/12/22 06:10:07;;;;;;;16.40;12.00;;;;;;;-2.54;72.28;101384.15;103126;1319;22637;-79
2021/12/22 06:12:35;;;;;;;16.90;10.90;;;;;;;-2.53;72.31;101387.68;103279;1322;25212;-79
2021/12/22 06:15:03;;;;;;;17.90;10.80;;;;;;;-2.51;72.25;101393.17;103416;1320;25232;-81
2021/12/22 06:17:30;;;;;;;14.90;10.30;;;;;;;-2.46;72.07;101392.77;103077;1322;25236;-80
2021/12/22 06:19:57;;;;;;;13.80;8.90;;;;;;;-2.49;72.13;101390.66;103144;1322;22672;-78
2021/12/22 06:22:26;;;;;;;14.90;9.60;;;;;;;-2.48;72.12;101398.86;103035;1322;26664;-80
2021/12/22 06:24:53;;;;;;;14.80;10.30;;;;;;;-2.49;72.07;101409.34;102662;1328;23579;-78
2021/12/22 06:27:20;;;;;;;11.80;9.30;;;;;;;-2.52;72.06;101407.09;102672;1327;22611;-82
2021/12/22 06:29:47;;;;;;;12.60;8.80;;;;;;;-2.53;72.09;101405.45;102649;1325;22670;-79
2021/12/22 06:32:14;;;;;;;11.60;8.90;;;;;;;-2.50;72.27;101409.77;102491;1328;23897;-79
2021/12/22 06:34:41;;;;;;;12.00;8.60;;;;;;;-2.49;72.14;101409.29;102755;1321;25531;-86
2021/12/22 06:37:08;;;;;;;19.30;12.90;;;;;;;-2.45;72.52;101403.33;102646;1328;22598;-87
2021/12/22 06:39:35;;;;;;;18.00;10.70;;;;;;;-2.37;72.57;101404.16;102764;1328;24422;-85
2021/12/22 06:42:03;;;;;;;15.20;10.80;;;;;;;-2.33;72.33;101404.56;102845;1328;25415;-89
2021/12/22 06:44:31;;;;;;;15.30;12.10;;;;;;;-2.29;72.30;101420.33;104139;1322;25395;-82
2021/12/22 06:47:19;;;;;;;14.20;9.80;;;;;;;-2.23;72.04;101424.48;104103;1319;24565;-89
2021/12/22 06:50:17;;;;;;;15.30;10.80;;;;;;;-2.27;71.76;101424.41;103989;1321;22593;-89
2021/12/22 06:53:05;;;;;;;11.50;7.80;;;;;;;-2.28;71.84;101425.89;105326;1319;23042;-89
2021/12/22 06:56:22;;;;;;;15.30;10.30;;;;;;;-2.35;71.75;101436.71;104761;1322;25332;-90
2021/12/22 06:59:14;;;;;;;14.10;9.20;;;;;;;-2.41;71.92;101439.77;104132;1319;27028;-86
2021/12/22 07:01:41;;;;;;;14.00;10.30;;;;;;;-2.36;72.28;101434.91;103314;1316;22701;-87
2021/12/22 07:04:09;;;;;;;12.80;8.20;;;;;;;-2.25;72.43;101437.14;103515;1320;22555;-86
2021/12/22 07:06:36;;;;;;;15.10;11.50;;;;;;;-2.21;72.08;101438.42;103163;1326;22671;-90
2021/12/22 07:09:07;;;;;;;18.60;12.30;;;;;;;-2.21;71.82;101439.75;104333;1327;24227;-89
2021/12/22 07:12:18;;;;;;;17.00;11.80;;;;;;;-2.20;72.09;101441.88;103742;1326;23991;-90
2021/12/22 07:15:10;;;;;;;16.90;10.60;;;;;;;-2.15;72.07;101436.48;103642;1321;22913;-91
2021/12/22 07:18:10;;;;;;;14.60;10.40;;;;;;;-2.13;71.75;101438.02;104402;1323;23234;-89
2021/12/22 07:20:39;;;;;;;16.80;10.40;;;;;;;-2.18;71.70;101446.17;103682;1323;22617;-90
2021/12/22 07:23:08;;;;;;;15.10;11.30;;;;;;;-2.22;71.68;101445.91;103693;1326;22667;-87
2021/12/22 07:25:35;;;;;;;17.90;11.60;;;;;;;-2.30;71.86;101451.19;103326;1322;25236;-83
2021/12/22 07:28:02;;;;;;;15.40;11.30;;;;;;;-2.31;71.99;101453.70;103268;1322;22641;-82
2021/12/22 07:30:29;;;;;;;15.50;11.20;;;;;;;-2.35;71.75;101447.42;102998;1322;22816;-81
2021/12/22 07:32:59;;;;;;;14.90;9.80;;;;;;;-2.42;71.98;101449.40;102870;1322;23141;-82
2021/12/22 07:35:30;;;;;;;17.20;11.00;;;;;;;-2.41;71.95;101446.88;103719;1319;25390;-82
2021/12/22 07:38:09;;;;;;;19.30;12.10;;;;;;;-2.38;72.15;101455.16;103539;1316;22894;-89
2021/12/22 07:40:36;;;;;;;12.40;9.00;;;;;;;-2.31;72.40;101452.52;103605;1318;23953;-83
2021/12/22 07:43:04;;;;;;;15.50;10.00;;;;;;;-2.28;72.24;101460.94;103892;1320;22709;-83
2021/12/22 07:45:31;;;;;;;18.40;12.30;;;;;;;-2.23;72.15;101463.46;103661;1321;22621;-86
2021/12/22 07:47:58;;;;;;;15.70;11.40;;;;;;;-2.21;72.15;101464.45;103852;1322;22588;-87
2021/12/22 07:50:25;;;;;;;22.20;14.40;;;;;;;-2.17;72.15;101464.01;103876;1320;22581;-85
2021/12/22 07:52:52;;;;;;;22.60;13.80;;;;;;;-2.14;72.01;101460.01;103355;1322;23540;-84
2021/12/22 07:55:19;;;;;;;18.30;12.30;;;;;;;-2.15;71.98;101463.79;102705;1328;26531;-83
2021/12/22 07:57:46;;;;;;;20.70;13.30;;;;;;;-2.07;72.09;101462.86;102831;1328;22707;-83
2021/12/22 08:00:14;;;;;;;25.50;13.80;;;;;;;-2.08;71.86;101463.14;103031;1326;25285;-86
2021/12/22 08:02:41;;;;;;;17.30;11.60;;;;;;;-2.10;71.91;101473.73;103087;1326;25246;-86
2021/12/22 08:05:29;;;;;;;20.00;12.00;;;;;;;-2.10;71.97;101473.38;103216;1325;22612;-87
2021/12/22 08:08:18;;;;;;;15.50;10.30;;;;;;;-2.13;71.91;101471.68;104185;1327;22656;-88
2021/12/22 08:12:04;;;;;;;18.70;11.90;;;;;;;-2.08;72.10;101474.73;103362;1328;22584;-86
2021/12/22 08:15:36;;;;;;;16.90;11.60;;;;;;;-2.02;71.89;101473.02;104822;1330;22623;-86
2021/12/22 08:18:04;;;;;;;18.00;11.90;;;;;;;-2.02;71.97;101467.27;102739;1335;23384;-83
2021/12/22 08:20:31;;;;;;;20.30;13.00;;;;;;;-1.91;72.46;101467.45;102133;1339;23890;-84
2021/12/22 08:22:59;;;;;;;20.90;13.30;;;;;;;-1.79;72.51;101462.10;102530;1334;23155;-84
2021/12/22 08:25:26;;;;;;;19.10;12.80;;;;;;;-1.66;71.78;101462.82;102444;1337;25823;-84
2021/12/22 08:27:54;;;;;;;18.50;11.90;;;;;;;-1.79;71.24;101456.23;102216;1337;24170;-83
2021/12/22 08:30:22;;;;;;;18.60;11.80;;;;;;;-1.87;71.34;101451.59;102131;1337;22613;-85
2021/12/22 08:32:49;;;;;;;19.60;12.20;;;;;;;-1.93;71.49;101462.29;102099;1336;22571;-83
2021/12/22 08:35:17;;;;;;;16.40;10.20;;;;;;;-2.02;71.79;101464.05;103167;1327;24411;-83
2021/12/22 08:40:30;;;;;;;22.50;16.30;;;;;;;-1.95;72.10;101460.95;102720;1336;25387;-84
2021/12/22 08:42:57;;;;;;;17.30;11.40;;;;;;;-1.91;71.75;101464.17;102529;1329;22587;-84
2021/12/22 08:45:24;;;;;;;18.20;13.10;;;;;;;-1.99;71.54;101464.38;102843;1328;22619;-83
2021/12/22 08:47:52;;;;;;;25.00;15.50;;;;;;;-2.05;71.74;101461.80;102874;1329;22587;-85
2021/12/22 08:50:24;;;;;;;23.10;13.80;;;;;;;-1.97;71.95;101470.38;102343;1332;23599;-84
2021/12/22 08:52:54;;;;;;;21.20;14.00;;;;;;;-1.99;71.57;101472.33;102904;1326;22875;-88
2021/12/22 08:55:21;;;;;;;22.30;14.80;;;;;;;-2.05;71.97;101473.73;104152;1328;22599;-92
2021/12/22 08:57:49;;;;;;;20.00;13.10;;;;;;;-1.93;72.31;101476.27;104461;1326;22677;-91
2021/12/22 09:00:17;;;;;;;16.30;11.70;;;;;;;-1.87;71.95;101482.86;105899;1319;22954;-87
2021/12/22 09:02:45;;;;;;;25.30;15.70;;;;;;;-1.87;71.67;101482.02;105165;1305;25256;-87
2021/12/22 09:05:12;;;;;;;28.20;15.70;;;;;;;-1.87;71.49;101478.17;105889;1305;23073;-91
2021/12/22 09:07:40;;;;;;;25.60;15.90;;;;;;;-1.90;71.37;101483.21;104117;1319;22594;-89
2021/12/22 09:10:13;;;;;;;26.40;16.20;;;;;;;-1.93;71.53;101491.84;105467;1313;22630;-90
2021/12/22 09:13:02;;;;;;;26.30;17.60;;;;;;;-1.98;71.51;101500.15;104081;1313;22586;-90
2021/12/22 09:15:30;;;;;;;23.50;14.00;;;;;;;-2.00;71.64;101504.88;104204;1320;22586;-88
2021/12/22 09:17:57;;;;;;;20.70;12.80;;;;;;;-2.04;71.79;101502.59;103603;1320;24244;-88
2021/12/22 09:20:24;;;;;;;18.90;12.40;;;;;;;-2.02;72.00;101500.25;103481;1320;22660;-88
2021/12/22 09:22:59;;;;;;;21.50;13.80;;;;;;;-2.04;71.71;101500.88;104448;1316;25245;-92
2021/12/22 09:25:35;;;;;;;20.00;12.50;;;;;;;-2.09;71.73;101505.91;104192;1312;22701;-89
2021/12/22 09:28:03;;;;;;;21.60;13.90;;;;;;;-2.11;71.93;101509.25;106080;1320;25262;-93
2021/12/22 09:30:35;;;;;;;24.10;15.20;;;;;;;-2.11;71.78;101504.40;105568;1315;22664;-90
2021/12/22 09:33:25;;;;;;;;;;;;;;;;;;;;;
2021/12/22 09:41:58;;;;;;;26.00;15.60;;;;;;;-1.71;71.68;101510.03;104863;1310;22673;-88
2021/12/22 09:44:31;;;;;;;22.20;14.10;;;;;;;-1.72;71.60;101507.18;103560;1316;24794;-84
2021/12/22 09:47:00;;;;;;;27.80;17.00;;;;;;;-1.73;71.54;101502.83;104585;1320;25946;-84
2021/12/22 09:49:47;;;;;;;23.90;15.20;;;;;;;-1.68;71.54;101502.98;103753;1320;24227;-87
2021/12/22 09:52:16;;;;;;;22.30;13.20;;;;;;;-1.64;71.65;101498.18;103769;1320;23651;-88
2021/12/22 09:54:44;;;;;;;24.30;15.70;;;;;;;-1.56;71.61;101496.91;103293;1322;24216;-87
2021/12/22 09:57:12;;;;;;;25.30;15.50;;;;;;;-1.47;71.55;101494.65;103124;1321;22639;-88
2021/12/22 09:59:40;;;;;;;25.60;15.60;;;;;;;-1.41;71.20;101492.08;103202;1322;25867;-86
2021/12/22 10:02:15;;;;;;;26.10;16.00;;;;;;;-1.43;70.97;101485.20;102225;1333;22566;-89
2021/12/22 10:04:42;;;;;;;25.40;15.80;;;;;;;-1.41;70.89;101481.53;102589;1331;22583;-86
2021/12/22 10:07:25;;;;;;;22.00;14.30;;;;;;;-1.47;70.65;101481.54;103116;1325;22681;-88
2021/12/22 10:09:55;;;;;;;20.70;13.50;;;;;;;-1.52;70.77;101486.09;101766;1337;22937;-88
2021/12/22 10:12:26;;;;;;;25.30;14.80;;;;;;;-1.55;70.87;101480.20;102408;1336;22852;-85
2021/12/22 10:14:55;;;;;;;24.60;15.90;;;;;;;-1.70;70.29;101477.96;102307;1334;25560;-85
2021/12/22 10:17:43;;;;;;;24.40;15.40;;;;;;;-1.74;70.97;101482.41;102196;1331;22746;-85
2021/12/22 10:20:20;;;;;;;20.40;13.00;;;;;;;-1.70;70.81;101485.22;102279;1333;22846;-84
2021/12/22 10:22:49;;;;;;;22.30;14.70;;;;;;;-1.78;70.67;101486.17;101908;1334;22596;-83
2021/12/22 10:25:25;;;;;;;25.10;15.30;;;;;;;-1.80;70.77;101490.69;101986;1334;22597;-84
2021/12/22 10:28:08;;;;;;;21.50;14.70;;;;;;;-1.75;70.87;101491.64;102848;1323;22580;-84
2021/12/22 10:30:39;;;;;;;22.30;13.90;;;;;;;-1.67;70.84;101486.60;103311;1323;25656;-85
2021/12/22 10:33:15;;;;;;;20.10;12.70;;;;;;;-1.59;70.97;101485.19;103218;1323;22558;-85
2021/12/22 10:35:51;;;;;;;21.00;12.90;;;;;;;-1.59;70.37;101487.05;103305;1323;25283;-83
2021/12/22 10:38:25;;;;;;;22.50;14.10;;;;;;;-1.60;70.35;101489.09;103319;1323;24661;-82
2021/12/22 10:41:23;;;;;;;19.30;12.00;;;;;;;-1.58;70.36;101487.65;103278;1320;25528;-84
2021/12/22 10:43:51;;;;;;;20.10;14.20;;;;;;;-1.61;70.18;101478.67;102925;1324;205598;-84
2021/12/22 10:46:33;;;;;;;18.80;12.50;;;;;;;-1.51;70.58;101477.33;102913;1326;25248;-83
2021/12/22 10:49:19;;;;;;;19.30;12.00;;;;;;;-1.45;70.14;101481.98;102773;1326;25471;-82
2021/12/22 10:52:01;;;;;;;21.10;11.90;;;;;;;-1.55;69.82;101487.81;102936;1328;25243;-83
2021/12/22 10:54:38;;;;;;;23.00;14.80;;;;;;;-1.59;69.92;101477.23;102837;1328;25649;-83
2021/12/22 10:57:14;;;;;;;24.20;14.90;;;;;;;-1.54;70.11;101480.08;102750;1326;22583;-84
2021/12/22 10:59:49;;;;;;;20.30;13.50;;;;;;;-1.51;70.29;101474.55;102717;1326;23382;-82
2021/12/22 11:02:34;;;;;;;27.00;15.40;;;;;;;-1.50;70.07;101471.73;103267;1320;22506;-82
2021/12/22 11:05:06;;;;;;;25.30;16.30;;;;;;;-1.48;70.03;101471.80;103518;1320;24187;-82
2021/12/22 11:07:40;;;;;;;24.90;15.30;;;;;;;-1.45;70.08;101475.27;103270;1326;22622;-84
2021/12/22 11:10:27;;;;;;;28.50;17.50;;;;;;;-1.34;70.31;101469.67;102330;1329;25396;-83
2021/12/22 11:13:04;;;;;;;28.90;17.30;;;;;;;-1.31;69.61;101472.62;103201;1326;22586;-81
2021/12/22 11:15:45;;;;;;;27.60;16.60;;;;;;;-1.36;69.66;101473.36;104748;1324;22650;-83
2021/12/22 11:18:33;;;;;;;26.50;16.50;;;;;;;-1.29;70.13;101476.88;104726;1333;22734;-84
2021/12/22 11:21:23;;;;;;;27.00;15.40;;;;;;;-1.18;69.90;101476.06;103333;1336;22608;-85
2021/12/22 11:23:51;;;;;;;22.50;15.50;;;;;;;-1.23;69.31;101477.88;102853;1337;22627;-84
2021/12/22 11:26:19;;;;;;;25.50;15.60;;;;;;;-1.33;69.32;101477.33;103825;1331;24231;-84
2021/12/22 11:28:46;;;;;;;27.80;17.80;;;;;;;-1.39;69.38;101478.04;104910;1325;23082;-82
2021/12/22 11:31:14;;;;;;;29.90;17.40;;;;;;;-1.39;69.51;101475.43;104372;1322;23882;-84
2021/12/22 11:33:46;;;;;;;29.10;17.80;;;;;;;-1.56;69.02;101482.04;104124;1326;25429;-82
2021/12/22 11:36:15;;;;;;;31.50;17.40;;;;;;;-1.71;69.40;101483.75;104209;1324;23485;-91
2021/12/22 11:38:42;;;;;;;23.50;15.10;;;;;;;-1.76;69.63;101478.86;104379;1321;23950;-84
2021/12/22 11:41:16;;;;;;;23.10;14.10;;;;;;;-1.85;69.71;101481.06;103427;1319;26603;-83
2021/12/22 11:43:48;;;;;;;29.80;18.40;;;;;;;-1.87;70.18;101478.72;103893;1317;23975;-84
2021/12/22 11:46:16;;;;;;;27.90;16.20;;;;;;;-1.78;70.27;101478.38;103367;1323;25398;-83
2021/12/22 11:48:48;;;;;;;26.10;16.10;;;;;;;-1.73;70.17;101479.69;103327;1323;25463;-85